createdAt,value
2023-06-26T00:02:07.475Z,4.97
2023-06-26T00:04:33.416Z,4.82
2023-06-26T00:06:59.273Z,5.00
2023-06-26T00:09:25.614Z,6.20
2023-06-26T00:11:52.728Z,6.47
2023-06-26T00:14:21.115Z,4.57
2023-06-26T00:16:49.859Z,4.35
2023-06-26T00:19:16.238Z,5.55
2023-06-26T00:21:46.961Z,7.07
2023-06-26T00:24:13.893Z,5.70
2023-06-26T00:26:39.748Z,7.40
2023-06-26T00:29:06.307Z,5.00
2023-06-26T00:31:32.429Z,7.70
2023-06-26T00:33:58.371Z,5.03
2023-06-26T00:36:26.811Z,5.20
2023-06-26T00:38:56.268Z,5.22
2023-06-26T00:41:22.075Z,5.43
2023-06-26T00:43:47.943Z,5.10
2023-06-26T00:46:14.812Z,5.38
2023-06-26T00:48:45.714Z,5.05
2023-06-26T00:51:12.651Z,5.80
2023-06-26T00:53:38.915Z,4.70
2023-06-26T00:56:06.012Z,6.05
2023-06-26T00:58:31.898Z,5.15
2023-06-26T01:00:58.145Z,4.72
2023-06-26T01:03:25.627Z,5.68
2023-06-26T01:06:01.853Z,5.57
2023-06-26T01:08:28.148Z,5.60
2023-06-26T01:10:54.352Z,5.00
2023-06-26T01:13:20.708Z,5.70
2023-06-26T01:15:47.818Z,5.85
2023-06-26T01:18:15.725Z,5.05
2023-06-26T01:20:42.104Z,6.55
2023-06-26T01:23:26.965Z,6.75
2023-06-26T01:26:21.359Z,5.03
2023-06-26T01:28:49.166Z,5.28
2023-06-26T01:31:15.570Z,5.53
2023-06-26T01:33:42.222Z,5.53
2023-06-26T01:36:08.402Z,4.65
2023-06-26T01:38:37.386Z,5.97
2023-06-26T01:41:05.137Z,5.97
2023-06-26T01:43:49.179Z,4.22
2023-06-26T01:46:22.186Z,4.55
2023-06-26T01:48:59.536Z,6.13
2023-06-26T01:51:30.897Z,4.40
2023-06-26T01:53:59.195Z,6.72
2023-06-26T01:56:25.833Z,6.28
2023-06-26T01:58:55.301Z,5.28
2023-06-26T02:01:22.087Z,5.25
2023-06-26T02:03:49.082Z,5.00
2023-06-26T02:06:15.362Z,6.15
2023-06-26T02:08:41.395Z,5.03
2023-06-26T02:11:07.306Z,5.20
2023-06-26T02:13:33.166Z,6.28
2023-06-26T02:15:59.043Z,5.50
2023-06-26T02:18:24.826Z,6.93
2023-06-26T02:20:50.826Z,5.70
2023-06-26T02:23:16.647Z,5.13
2023-06-26T02:25:42.489Z,6.45
2023-06-26T02:28:08.575Z,4.43
2023-06-26T02:30:34.435Z,4.93
2023-06-26T02:33:00.314Z,5.18
2023-06-26T02:35:26.214Z,6.75
2023-06-26T02:37:52.064Z,5.40
2023-06-26T02:40:17.905Z,5.10
2023-06-26T02:42:43.743Z,5.05
2023-06-26T02:45:10.113Z,4.88
2023-06-26T02:47:39.752Z,7.50
2023-06-26T02:50:07.216Z,5.30
2023-06-26T02:52:33.035Z,5.22
2023-06-26T02:54:58.911Z,4.97
2023-06-26T02:57:24.743Z,5.00
2023-06-26T02:59:50.716Z,5.53
2023-06-26T03:02:16.630Z,5.53
2023-06-26T03:04:43.453Z,4.68
2023-06-26T03:07:09.642Z,4.40
2023-06-26T03:09:35.613Z,5.07
2023-06-26T03:12:01.518Z,7.07
2023-06-26T03:14:27.379Z,5.47
2023-06-26T03:16:56.332Z,5.15
2023-06-26T03:19:22.186Z,5.13
2023-06-26T03:21:48.054Z,5.22
2023-06-26T03:24:13.848Z,5.38
2023-06-26T03:26:39.744Z,5.32
2023-06-26T03:29:05.556Z,5.95
2023-06-26T03:31:31.484Z,5.03
2023-06-26T03:33:57.406Z,5.30
2023-06-26T03:36:23.221Z,4.53
2023-06-26T03:38:49.062Z,8.18
2023-06-26T03:41:14.980Z,4.72
2023-06-26T03:43:40.824Z,4.93
2023-06-26T03:46:06.625Z,4.30
2023-06-26T03:48:32.657Z,6.30
2023-06-26T03:50:58.545Z,5.22
2023-06-26T03:53:24.804Z,6.60
2023-06-26T03:55:50.611Z,6.07
2023-06-26T03:58:16.433Z,5.22
2023-06-26T04:00:42.400Z,7.88
2023-06-26T04:03:09.480Z,5.85
2023-06-26T04:05:36.331Z,5.43
2023-06-26T04:08:02.186Z,7.55
2023-06-26T04:10:28.325Z,8.10
2023-06-26T04:12:54.260Z,5.13
2023-06-26T04:15:20.348Z,5.00
2023-06-26T04:17:46.235Z,5.50
2023-06-26T04:20:12.203Z,5.10
2023-06-26T04:22:38.075Z,4.90
2023-06-26T04:25:04.557Z,5.70
2023-06-26T04:27:35.738Z,5.20
2023-06-26T04:30:02.792Z,5.47
2023-06-26T04:32:28.604Z,5.88
2023-06-26T04:34:54.422Z,4.82
2023-06-26T04:37:20.688Z,8.50
2023-06-26T04:39:46.587Z,7.22
2023-06-26T04:42:12.526Z,5.75
2023-06-26T04:44:38.851Z,6.32
2023-06-26T04:47:04.923Z,6.38
2023-06-26T04:49:30.730Z,5.53
2023-06-26T04:51:57.029Z,6.22
2023-06-26T04:54:23.616Z,8.00
2023-06-26T04:56:49.450Z,7.53
2023-06-26T04:59:15.355Z,7.05
2023-06-26T05:01:41.422Z,6.97
2023-06-26T05:04:07.605Z,8.75
2023-06-26T05:06:33.453Z,5.97
2023-06-26T05:08:59.281Z,8.23
2023-06-26T05:11:25.822Z,7.20
2023-06-26T05:13:51.742Z,9.68
2023-06-26T05:16:17.569Z,6.35
2023-06-26T05:18:43.371Z,7.90
2023-06-26T05:21:09.575Z,7.78
2023-06-26T05:23:35.984Z,6.22
2023-06-26T05:26:03.270Z,8.88
2023-06-26T05:28:31.398Z,7.15
2023-06-26T05:30:58.625Z,11.27
2023-06-26T05:33:26.883Z,15.68
2023-06-26T05:35:53.652Z,7.47
2023-06-26T05:38:20.381Z,7.55
2023-06-26T05:40:46.805Z,10.02
2023-06-26T05:43:13.082Z,7.82
2023-06-26T05:45:38.952Z,8.43
2023-06-26T05:48:05.158Z,7.78
2023-06-26T05:50:31.510Z,9.50
2023-06-26T05:52:57.703Z,7.45
2023-06-26T05:55:24.064Z,8.15
2023-06-26T05:57:51.398Z,12.55
2023-06-26T06:00:17.753Z,8.90
2023-06-26T06:02:43.797Z,8.55
2023-06-26T06:05:10.170Z,7.35
2023-06-26T06:07:36.700Z,11.10
2023-06-26T06:10:03.819Z,7.65
2023-06-26T06:12:30.007Z,10.55
2023-06-26T06:14:56.720Z,9.02
2023-06-26T06:17:23.080Z,7.57
2023-06-26T06:19:49.746Z,9.13
2023-06-26T06:22:16.886Z,10.57
2023-06-26T06:24:43.247Z,10.25
2023-06-26T06:27:09.061Z,9.73
2023-06-26T06:29:34.882Z,11.30
2023-06-26T06:32:01.082Z,8.52
2023-06-26T06:34:26.978Z,8.65
2023-06-26T06:36:52.905Z,10.88
2023-06-26T06:39:18.770Z,9.00
2023-06-26T06:41:44.632Z,6.68
2023-06-26T06:44:10.431Z,12.52
2023-06-26T06:46:36.244Z,8.70
2023-06-26T06:49:02.606Z,10.77
2023-06-26T06:51:28.421Z,8.40
2023-06-26T06:53:54.302Z,12.40
2023-06-26T06:56:20.113Z,7.30
2023-06-26T06:58:47.315Z,8.43
2023-06-26T07:01:13.913Z,7.32
2023-06-26T07:03:40.362Z,8.05
2023-06-26T07:06:06.370Z,8.57
2023-06-26T07:08:32.409Z,10.88
2023-06-26T07:10:58.261Z,9.93
2023-06-26T07:13:24.288Z,6.13
2023-06-26T07:15:50.275Z,8.05
2023-06-26T07:18:16.647Z,7.13
2023-06-26T07:20:42.538Z,7.28
2023-06-26T07:23:08.883Z,8.63
2023-06-26T07:25:35.110Z,8.93
2023-06-26T07:28:01.186Z,9.20
2023-06-26T07:30:27.027Z,8.00
2023-06-26T07:32:52.938Z,8.52
2023-06-26T07:35:18.804Z,10.18
2023-06-26T07:37:44.924Z,9.18
2023-06-26T07:40:11.316Z,8.10
2023-06-26T07:42:37.302Z,10.18
2023-06-26T07:45:10.248Z,8.90
2023-06-26T07:47:37.296Z,11.27
2023-06-26T07:50:03.757Z,10.45
2023-06-26T07:52:30.549Z,11.45
2023-06-26T07:54:57.107Z,8.32
2023-06-26T07:57:23.187Z,9.80
2023-06-26T07:59:49.074Z,13.55
2023-06-26T08:02:14.967Z,9.55
2023-06-26T08:04:40.891Z,13.50
2023-06-26T08:07:06.953Z,11.35
2023-06-26T08:09:33.045Z,9.10
2023-06-26T08:11:59.324Z,9.15
2023-06-26T08:14:25.557Z,10.55
2023-06-26T08:16:51.749Z,15.15
2023-06-26T08:19:17.678Z,10.32
2023-06-26T08:21:47.486Z,10.45
2023-06-26T08:24:13.802Z,12.05
2023-06-26T08:26:40.154Z,10.18
2023-06-26T08:29:11.543Z,12.52
2023-06-26T08:31:39.867Z,10.88
2023-06-26T08:34:06.466Z,12.32
2023-06-26T08:36:32.517Z,11.35
2023-06-26T08:38:58.672Z,8.77
2023-06-26T08:41:25.144Z,13.00
2023-06-26T08:43:52.920Z,10.88
2023-06-26T08:46:19.956Z,11.68
2023-06-26T08:48:56.122Z,10.52
2023-06-26T08:51:26.102Z,10.40
2023-06-26T08:54:02.636Z,7.68
2023-06-26T08:56:35.836Z,9.43
2023-06-26T08:59:01.886Z,12.25
2023-06-26T09:01:28.438Z,9.70
2023-06-26T09:03:54.526Z,13.15
2023-06-26T09:06:20.957Z,11.20
2023-06-26T09:08:47.133Z,15.88
2023-06-26T09:11:13.184Z,10.45
2023-06-26T09:13:40.009Z,10.57
2023-06-26T09:16:09.583Z,10.60
2023-06-26T09:18:35.843Z,10.43
2023-06-26T09:21:08.564Z,10.18
2023-06-26T09:23:35.852Z,7.45
2023-06-26T09:26:06.001Z,10.35
2023-06-26T09:28:35.808Z,9.65
2023-06-26T09:31:08.732Z,10.10
2023-06-26T09:33:36.972Z,9.68
2023-06-26T09:36:10.270Z,8.77
2023-06-26T09:38:36.679Z,7.70
2023-06-26T09:41:04.215Z,12.10
2023-06-26T09:43:31.493Z,7.32
2023-06-26T09:45:57.709Z,10.38
2023-06-26T09:48:23.600Z,9.98
2023-06-26T09:51:05.532Z,6.65
2023-06-26T09:53:36.833Z,8.02
2023-06-26T09:56:06.901Z,6.72
2023-06-26T09:58:33.784Z,8.77
2023-06-26T10:00:59.721Z,9.50
2023-06-26T10:03:25.699Z,11.05
2023-06-26T10:05:53.187Z,11.05
2023-06-26T10:08:19.397Z,10.73
2023-06-26T10:10:48.289Z,11.60
2023-06-26T10:13:22.965Z,11.13
2023-06-26T10:15:51.473Z,16.73
2023-06-26T10:18:18.917Z,10.50
2023-06-26T10:20:51.364Z,12.05
2023-06-26T10:23:22.300Z,9.40
2023-06-26T10:25:52.624Z,10.43
2023-06-26T10:28:21.705Z,11.63
2023-06-26T10:30:49.334Z,9.60
2023-06-26T10:33:15.544Z,10.07
2023-06-26T10:35:44.003Z,7.65
2023-06-26T10:38:09.844Z,10.82
2023-06-26T10:40:47.150Z,7.60
2023-06-26T10:43:14.430Z,8.68
2023-06-26T10:45:45.352Z,7.93
2023-06-26T10:48:14.563Z,8.82
2023-06-26T10:50:40.877Z,9.35
2023-06-26T10:53:21.109Z,10.95
2023-06-26T10:55:58.290Z,12.02
2023-06-26T10:58:34.917Z,7.90
2023-06-26T11:01:16.087Z,9.18
2023-06-26T11:03:45.209Z,11.95
2023-06-26T11:06:13.220Z,9.90
2023-06-26T11:08:47.382Z,8.95
2023-06-26T11:11:13.393Z,9.75
2023-06-26T11:13:40.765Z,6.90
2023-06-26T11:16:06.915Z,6.78
2023-06-26T11:18:33.092Z,6.68
2023-06-26T11:21:06.741Z,9.98
2023-06-26T11:23:34.768Z,8.07
2023-06-26T11:26:21.995Z,7.97
2023-06-26T11:28:52.642Z,9.20
2023-06-26T11:31:32.977Z,6.85
2023-06-26T11:34:04.052Z,7.07
2023-06-26T11:36:31.009Z,7.65
2023-06-26T11:38:58.758Z,7.63
2023-06-26T11:41:27.342Z,10.38
2023-06-26T11:43:53.517Z,7.03
2023-06-26T11:46:21.217Z,8.25
2023-06-26T11:48:47.760Z,6.03
2023-06-26T11:51:17.378Z,7.32
2023-06-26T11:53:45.096Z,5.53
2023-06-26T11:56:15.570Z,7.10
2023-06-26T11:59:03.338Z,6.72
2023-06-26T12:01:35.066Z,7.78
2023-06-26T12:04:03.843Z,4.88
2023-06-26T12:06:32.306Z,6.93
2023-06-26T12:09:05.333Z,6.03
2023-06-26T12:11:32.379Z,7.78
2023-06-26T12:13:59.410Z,7.38
2023-06-26T12:16:25.965Z,7.65
2023-06-26T12:18:58.160Z,5.90
2023-06-26T12:21:42.412Z,6.88
2023-06-26T12:24:10.961Z,7.10
2023-06-26T12:26:37.133Z,8.65
2023-06-26T12:29:03.573Z,6.07
2023-06-26T12:31:29.759Z,10.20
2023-06-26T12:33:55.774Z,4.50
2023-06-26T12:36:21.653Z,8.73
2023-06-26T12:38:49.397Z,7.93
2023-06-26T12:41:16.252Z,4.60
2023-06-26T12:43:42.905Z,6.13
2023-06-26T12:46:09.281Z,8.15
2023-06-26T12:48:46.855Z,6.32
2023-06-26T12:51:16.876Z,4.20
2023-06-26T12:53:43.312Z,7.03
2023-06-26T12:56:10.126Z,7.38
2023-06-26T12:58:37.331Z,5.93
2023-06-26T13:01:04.670Z,6.28
2023-06-26T13:03:31.302Z,5.70
2023-06-26T13:05:57.337Z,4.97
2023-06-26T13:08:23.368Z,5.88
2023-06-26T13:10:49.411Z,3.95
2023-06-26T13:13:15.375Z,4.60
2023-06-26T13:15:41.327Z,4.78
2023-06-26T13:18:07.197Z,3.90
2023-06-26T13:20:33.143Z,2.33
2023-06-26T13:22:58.984Z,5.03
2023-06-26T13:25:24.908Z,4.93
2023-06-26T13:27:50.733Z,3.05
2023-06-26T13:30:18.369Z,2.22
2023-06-26T13:32:44.664Z,3.90
2023-06-26T13:35:10.626Z,7.63
2023-06-26T13:37:37.092Z,5.30
2023-06-26T13:40:03.512Z,6.00
2023-06-26T13:42:29.861Z,8.10
2023-06-26T13:45:04.221Z,3.00
2023-06-26T13:47:34.992Z,4.28
2023-06-26T13:50:01.054Z,2.55
2023-06-26T13:52:26.975Z,3.70
2023-06-26T13:54:52.892Z,5.30
2023-06-26T13:57:22.422Z,4.55
2023-06-26T13:59:48.749Z,3.65
2023-06-26T14:02:14.909Z,5.97
2023-06-26T14:04:41.258Z,2.22
2023-06-26T14:07:07.731Z,4.65
2023-06-26T14:09:33.607Z,5.47
2023-06-26T14:11:59.471Z,4.13
2023-06-26T14:14:25.488Z,2.88
2023-06-26T14:16:51.466Z,5.80
2023-06-26T14:19:19.956Z,3.95
2023-06-26T14:21:45.943Z,5.55
2023-06-26T14:24:11.794Z,4.50
2023-06-26T14:26:39.149Z,4.55
2023-06-26T14:29:04.945Z,6.65
2023-06-26T14:31:31.379Z,7.03
2023-06-26T14:33:59.335Z,5.15
2023-06-26T14:36:25.647Z,7.28
2023-06-26T14:38:51.517Z,3.92
2023-06-26T14:41:17.741Z,2.15
2023-06-26T14:43:45.896Z,5.18
2023-06-26T14:46:13.012Z,3.78
2023-06-26T14:48:39.552Z,3.20
2023-06-26T14:51:05.416Z,4.13
2023-06-26T14:53:31.410Z,3.22
2023-06-26T14:55:57.358Z,7.00
2023-06-26T14:58:23.418Z,2.08
2023-06-26T15:00:49.285Z,4.65
2023-06-26T15:03:15.257Z,3.60
2023-06-26T15:05:41.129Z,2.80
2023-06-26T15:08:06.996Z,3.40
2023-06-26T15:10:34.236Z,7.85
2023-06-26T15:13:00.316Z,2.97
2023-06-26T15:15:26.299Z,8.43
2023-06-26T15:17:52.305Z,5.22
2023-06-26T15:20:18.142Z,5.25
2023-06-26T15:22:44.067Z,4.15
2023-06-26T15:25:11.071Z,6.93
2023-06-26T15:27:36.925Z,3.85
2023-06-26T15:30:03.407Z,6.47
2023-06-26T15:32:29.356Z,6.53
2023-06-26T15:34:55.268Z,1.73
2023-06-26T15:37:21.149Z,4.28
2023-06-26T15:39:47.001Z,3.97
2023-06-26T15:42:12.862Z,3.85
2023-06-26T15:44:38.662Z,3.58
2023-06-26T15:47:04.937Z,2.60
2023-06-26T15:49:31.570Z,4.07
2023-06-26T15:51:57.462Z,5.05
2023-06-26T15:54:23.332Z,10.63
2023-06-26T15:56:49.206Z,2.97
2023-06-26T15:59:18.863Z,3.97
2023-06-26T16:01:46.217Z,5.18
2023-06-26T16:04:12.858Z,5.60
2023-06-26T16:06:38.839Z,1.73
2023-06-26T16:09:04.758Z,5.28
2023-06-26T16:11:30.652Z,4.40
2023-06-26T16:13:58.289Z,9.82
2023-06-26T16:16:24.168Z,3.20
2023-06-26T16:18:50.127Z,3.17
2023-06-26T16:21:16.443Z,2.97
2023-06-26T16:23:42.314Z,4.85
2023-06-26T16:26:08.339Z,3.97
2023-06-26T16:28:34.231Z,5.13
2023-06-26T16:31:00.227Z,3.05
2023-06-26T16:33:26.134Z,5.35
2023-06-26T16:35:52.102Z,5.53
2023-06-26T16:38:18.012Z,3.67
2023-06-26T16:40:43.866Z,3.80
2023-06-26T16:43:10.127Z,4.63
2023-06-26T16:45:35.927Z,1.73
2023-06-26T16:48:01.853Z,2.88
2023-06-26T16:50:27.921Z,2.15
2023-06-26T16:52:53.771Z,3.85
2023-06-26T16:55:19.672Z,2.50
2023-06-26T16:57:45.569Z,4.25
2023-06-26T17:00:11.894Z,5.97
2023-06-26T17:02:38.233Z,4.72
2023-06-26T17:05:04.463Z,4.53
2023-06-26T17:07:30.435Z,9.27
2023-06-26T17:09:56.708Z,2.15
2023-06-26T17:12:22.997Z,4.85
2023-06-26T17:14:48.894Z,2.40
2023-06-26T17:17:17.725Z,3.83
2023-06-26T17:19:44.913Z,3.17
2023-06-26T17:22:10.808Z,3.88
2023-06-26T17:24:36.677Z,3.30
2023-06-26T17:27:14.588Z,6.38
2023-06-26T17:29:41.448Z,5.13
2023-06-26T17:32:08.292Z,3.35
2023-06-26T17:34:35.824Z,3.20
2023-06-26T17:37:04.499Z,1.85
2023-06-26T17:39:30.987Z,2.90
2023-06-26T17:41:56.920Z,3.08
2023-06-26T17:44:27.794Z,3.80
2023-06-26T17:46:54.378Z,4.82
2023-06-26T17:49:22.495Z,6.53
2023-06-26T17:51:49.002Z,7.47
2023-06-26T17:54:15.543Z,3.47
2023-06-26T17:56:43.258Z,5.15
2023-06-26T17:59:09.271Z,4.97
2023-06-26T18:01:35.204Z,5.10
2023-06-26T18:04:01.199Z,2.50
2023-06-26T18:06:27.193Z,5.88
2023-06-26T18:08:54.181Z,2.30
2023-06-26T18:11:20.098Z,4.35
2023-06-26T18:13:46.112Z,3.45
2023-06-26T18:16:12.115Z,4.57
2023-06-26T18:18:41.370Z,4.38
2023-06-26T18:21:07.565Z,3.78
2023-06-26T18:23:33.866Z,1.87
2023-06-26T18:26:00.800Z,4.88
2023-06-26T18:28:31.647Z,3.92
2023-06-26T18:30:57.468Z,3.17
2023-06-26T18:33:25.950Z,6.20
2023-06-26T18:35:51.811Z,2.13
2023-06-26T18:38:17.719Z,4.85
2023-06-26T18:40:43.599Z,4.88
2023-06-26T18:43:09.545Z,5.82
2023-06-26T18:45:35.615Z,4.15
2023-06-26T18:48:01.746Z,3.42
2023-06-26T18:50:28.818Z,6.25
2023-06-26T18:52:55.016Z,5.30
2023-06-26T18:55:21.177Z,3.15
2023-06-26T18:57:48.264Z,4.25
2023-06-26T19:00:16.020Z,6.43
2023-06-26T19:02:42.060Z,2.33
2023-06-26T19:05:08.401Z,2.60
2023-06-26T19:07:34.696Z,4.88
2023-06-26T19:10:00.567Z,5.45
2023-06-26T19:12:26.523Z,3.08
2023-06-26T19:14:52.488Z,4.45
2023-06-26T19:17:18.585Z,1.60
2023-06-26T19:19:44.761Z,4.38
2023-06-26T19:22:10.729Z,2.70
2023-06-26T19:24:36.610Z,4.22
2023-06-26T19:27:02.683Z,4.45
2023-06-26T19:29:28.589Z,2.65
2023-06-26T19:31:55.363Z,2.28
2023-06-26T19:34:21.379Z,4.18
2023-06-26T19:36:47.263Z,2.85
2023-06-26T19:39:13.318Z,2.40
2023-06-26T19:41:39.222Z,6.03
2023-06-26T19:44:05.015Z,9.43
2023-06-26T19:46:30.863Z,5.28
2023-06-26T19:48:57.445Z,3.42
2023-06-26T19:51:23.332Z,3.67
2023-06-26T19:53:52.149Z,6.03
2023-06-26T19:56:18.275Z,3.85
2023-06-26T19:58:44.067Z,2.63
2023-06-26T20:01:09.988Z,2.55
2023-06-26T20:03:36.150Z,2.92
2023-06-26T20:06:02.037Z,6.40
2023-06-26T20:08:27.938Z,6.32
2023-06-26T20:10:53.833Z,5.10
2023-06-26T20:13:20.054Z,3.45
2023-06-26T20:15:45.945Z,4.28
2023-06-26T20:18:12.186Z,3.97
2023-06-26T20:20:38.093Z,3.75
2023-06-26T20:23:04.064Z,4.45
2023-06-26T20:25:30.594Z,2.40
2023-06-26T20:27:56.488Z,5.15
2023-06-26T20:30:22.543Z,3.63
2023-06-26T20:32:48.482Z,4.50
2023-06-26T20:35:14.316Z,5.78
2023-06-26T20:37:40.583Z,2.72
2023-06-26T20:40:07.189Z,1.88
2023-06-26T20:42:33.316Z,5.57
2023-06-26T20:44:59.523Z,2.95
2023-06-26T20:47:41.487Z,2.85
2023-06-26T20:50:09.914Z,2.47
2023-06-26T20:52:39.245Z,4.38
2023-06-26T20:55:05.798Z,2.92
2023-06-26T20:57:31.631Z,3.03
2023-06-26T20:59:57.963Z,3.58
2023-06-26T21:02:23.993Z,2.90
2023-06-26T21:04:49.913Z,2.35
2023-06-26T21:07:15.915Z,2.75
2023-06-26T21:09:41.939Z,3.08
2023-06-26T21:12:08.398Z,4.63
2023-06-26T21:14:34.272Z,2.13
2023-06-26T21:17:00.628Z,2.85
2023-06-26T21:19:26.576Z,1.30
2023-06-26T21:21:52.439Z,3.30
2023-06-26T21:24:18.545Z,3.72
2023-06-26T21:26:44.472Z,3.47
2023-06-26T21:29:10.587Z,4.30
2023-06-26T21:31:36.649Z,2.55
2023-06-26T21:34:02.616Z,2.50
2023-06-26T21:36:28.483Z,4.93
2023-06-26T21:38:54.377Z,4.97
2023-06-26T21:41:20.302Z,2.58
2023-06-26T21:43:46.097Z,2.60
2023-06-26T21:46:11.972Z,4.15
2023-06-26T21:48:39.040Z,3.72
2023-06-26T21:51:05.304Z,3.60
2023-06-26T21:53:31.192Z,3.90
2023-06-26T21:55:57.152Z,5.40
2023-06-26T21:58:23.015Z,3.22
2023-06-26T22:00:48.850Z,4.28
2023-06-26T22:03:14.700Z,5.50
2023-06-26T22:05:40.914Z,4.35
2023-06-26T22:08:07.799Z,3.10
2023-06-26T22:10:34.170Z,3.90
2023-06-26T22:13:00.437Z,2.83
2023-06-26T22:15:26.407Z,5.55
2023-06-26T22:17:54.269Z,6.28
2023-06-26T22:20:20.982Z,2.45
2023-06-26T22:22:47.919Z,3.85
2023-06-26T22:25:14.541Z,3.72
2023-06-26T22:27:48.546Z,2.03
2023-06-26T22:30:15.663Z,2.47
2023-06-26T22:32:42.553Z,2.97
2023-06-26T22:35:08.885Z,3.33
2023-06-26T22:37:34.959Z,4.10
2023-06-26T22:40:00.840Z,4.78
2023-06-26T22:42:27.055Z,4.32
2023-06-26T22:44:52.906Z,4.25
2023-06-26T22:47:19.347Z,2.42
2023-06-26T22:49:48.874Z,3.25
2023-06-26T22:52:15.957Z,6.65
2023-06-26T22:54:41.817Z,3.35
2023-06-26T22:57:07.763Z,1.92
2023-06-26T22:59:33.581Z,2.28
2023-06-26T23:01:59.476Z,1.98
2023-06-26T23:04:25.339Z,3.78
2023-06-26T23:06:57.331Z,5.88
2023-06-26T23:09:23.739Z,4.80
2023-06-26T23:11:49.851Z,2.55
2023-06-26T23:14:15.798Z,3.65
2023-06-26T23:16:42.939Z,2.60
2023-06-26T23:19:09.709Z,2.67
2023-06-26T23:21:36.325Z,6.78
2023-06-26T23:24:03.112Z,4.35
2023-06-26T23:26:31.770Z,5.65
2023-06-26T23:28:58.339Z,5.82
2023-06-26T23:31:25.796Z,3.45
2023-06-26T23:33:52.562Z,4.43
2023-06-26T23:36:18.601Z,3.05
2023-06-26T23:38:44.619Z,3.65
2023-06-26T23:41:11.162Z,2.38
2023-06-26T23:43:38.014Z,5.35
2023-06-26T23:46:07.226Z,2.40
2023-06-26T23:48:33.246Z,2.92
2023-06-26T23:50:59.046Z,3.05
2023-06-26T23:53:25.017Z,4.75
2023-06-26T23:55:50.892Z,4.45
2023-06-26T23:58:17.689Z,4.75
